Time;durP1;ratioP1;P1;durP2;ratioP2;P2;SDS_P1;SDS_P2;PMS_P1;PMS_P2;Temp;Humidity;BMP_temperature;BMP_pressure;BME280_temperature;BME280_humidity;BME280_pressure;Samples;Min_cycle;Max_cycle;Signal;HPM_P1;HPM_P2
2022/03/21 00:03:06;;;;;;;28.83;18.00;;;;;;;9.77;31.37;99406.16;8318473;28;20239;-73
2022/03/21 00:07:08;;;;;;;26.63;17.60;;;;;;;9.60;31.63;99398.69;8319223;28;20233;-73
2022/03/21 00:11:13;;;;;;;27.57;17.13;;;;;;;9.62;31.62;99396.06;8318748;28;20236;-73
2022/03/21 00:15:16;;;;;;;22.13;14.57;;;;;;;9.51;31.86;99391.91;8318987;28;20411;-73
2022/03/21 00:19:19;;;;;;;18.30;13.87;;;;;;;9.43;32.03;99395.53;8319111;28;20417;-73
2022/03/21 00:23:23;;;;;;;16.03;13.37;;;;;;;8.83;32.71;99393.88;8319001;28;20428;-73
2022/03/21 00:27:27;;;;;;;20.00;14.07;;;;;;;8.58;33.56;99387.31;8318975;28;20244;-73
2022/03/21 00:31:30;;;;;;;18.43;14.70;;;;;;;8.61;33.17;99386.44;8318480;28;20411;-73
2022/03/21 00:35:34;;;;;;;17.53;13.73;;;;;;;8.89;32.76;99398.94;8318108;28;20239;-73
2022/03/21 00:39:38;;;;;;;18.63;14.43;;;;;;;9.25;32.64;99397.53;8287092;28;20469;-73
2022/03/21 00:43:43;;;;;;;18.97;13.53;;;;;;;9.37;32.65;99401.66;8285885;28;20242;-73
2022/03/21 00:47:47;;;;;;;17.33;14.20;;;;;;;9.44;32.68;99408.41;8285865;28;20237;-73
2022/03/21 00:51:50;;;;;;;16.13;13.03;;;;;;;9.47;32.69;99399.78;8285621;28;20317;-73
2022/03/21 00:55:53;;;;;;;16.27;11.90;;;;;;;9.47;32.77;99403.19;8285667;28;20240;-73
2022/03/21 00:59:58;;;;;;;14.30;12.80;;;;;;;9.36;32.78;99411.13;8285620;28;20240;-73
2022/03/21 01:04:01;;;;;;;16.57;12.10;;;;;;;9.36;32.89;99405.13;8307026;28;20237;-73
2022/03/21 01:08:04;;;;;;;16.53;11.50;;;;;;;9.33;33.08;99405.19;8317017;28;20243;-73
2022/03/21 01:12:09;;;;;;;14.07;12.30;;;;;;;9.33;33.06;99407.78;8317263;28;20247;-73
2022/03/21 01:16:13;;;;;;;16.13;12.43;;;;;;;9.26;33.18;99407.00;8317475;28;20236;-73
2022/03/21 01:20:18;;;;;;;15.30;12.60;;;;;;;9.24;33.70;99410.50;8317370;28;20237;-73
2022/03/21 01:24:21;;;;;;;16.27;12.30;;;;;;;9.13;33.69;99408.91;8317219;28;20236;-73
2022/03/21 01:28:26;;;;;;;14.83;11.67;;;;;;;9.23;33.63;99417.38;8316893;28;20340;-73
2022/03/21 01:32:32;;;;;;;16.60;12.73;;;;;;;9.00;33.44;99412.56;8316625;28;20245;-73
2022/03/21 01:36:35;;;;;;;15.70;12.23;;;;;;;9.00;33.17;99416.03;8316113;28;20427;-73
2022/03/21 01:40:38;;;;;;;14.63;11.67;;;;;;;9.07;33.69;99413.34;8316588;28;20413;-73
2022/03/21 01:44:40;;;;;;;14.80;11.97;;;;;;;9.06;33.46;99414.19;8316571;28;20237;-73
2022/03/21 01:48:45;;;;;;;14.00;12.50;;;;;;;8.99;33.12;99422.06;8316347;28;20435;-73
2022/03/21 01:52:48;;;;;;;14.53;12.00;;;;;;;9.09;33.24;99427.09;8316141;28;20240;-73
2022/03/21 01:56:51;;;;;;;13.47;12.07;;;;;;;8.83;33.87;99419.72;8316083;28;20252;-73
2022/03/21 02:00:54;;;;;;;14.30;12.10;;;;;;;8.82;34.48;99424.03;8333731;23;20335;-82
2022/03/21 02:04:59;;;;;;;17.93;12.33;;;;;;;8.29;33.36;99428.97;8351217;22;20342;-73
2022/03/21 02:09:03;;;;;;;16.03;12.77;;;;;;;8.20;33.55;99434.22;8348206;28;20423;-73
2022/03/21 02:13:06;;;;;;;18.37;12.83;;;;;;;8.31;33.30;99428.97;8348402;28;20428;-73
2022/03/21 02:17:15;;;;;;;16.80;12.47;;;;;;;8.05;33.58;99431.81;8348088;28;20239;-73
2022/03/21 02:21:25;;;;;;;15.30;12.87;;;;;;;8.01;33.53;99429.28;8347482;28;20434;-73
2022/03/21 02:25:32;;;;;;;17.17;12.77;;;;;;;7.86;33.71;99426.84;8347902;28;20235;-73
2022/03/21 02:29:37;;;;;;;16.17;12.63;;;;;;;8.38;33.51;99431.44;8347414;28;20232;-73
2022/03/21 02:33:40;;;;;;;16.03;13.00;;;;;;;8.38;33.13;99422.84;8347707;28;20240;-73
2022/03/21 02:37:44;;;;;;;14.07;12.07;;;;;;;8.53;33.80;99416.66;8347816;28;20422;-73
2022/03/21 02:41:49;;;;;;;15.30;12.73;;;;;;;8.48;33.76;99419.31;8347608;28;20267;-73
2022/03/21 02:45:52;;;;;;;17.53;11.90;;;;;;;8.48;33.91;99419.31;8347521;28;20290;-73
2022/03/21 02:49:55;;;;;;;14.93;12.77;;;;;;;8.49;34.14;99415.00;8347477;28;20254;-73
2022/03/21 02:53:58;;;;;;;14.87;12.00;;;;;;;8.42;34.81;99424.56;8347439;28;20434;-73
2022/03/21 02:58:03;;;;;;;15.00;11.83;;;;;;;8.33;34.68;99420.31;8347346;28;20255;-73
2022/03/21 03:02:07;;;;;;;13.43;11.70;;;;;;;8.27;34.60;99427.28;8347064;28;20244;-73
2022/03/21 03:06:11;;;;;;;14.47;12.10;;;;;;;8.13;34.25;99432.59;8346971;28;20244;-73
2022/03/21 03:10:13;;;;;;;18.30;12.90;;;;;;;8.27;34.69;99420.38;8347014;28;20250;-73
2022/03/21 03:14:18;;;;;;;14.77;12.10;;;;;;;8.23;34.65;99431.63;8346958;28;20236;-73
2022/03/21 03:18:21;;;;;;;15.10;11.97;;;;;;;8.27;34.66;99430.72;8346651;28;20232;-73
2022/03/21 03:22:25;;;;;;;13.93;12.30;;;;;;;8.19;34.79;99427.38;8346880;28;20254;-73
2022/03/21 03:26:27;;;;;;;12.73;11.33;;;;;;;8.15;34.76;99429.13;8346988;28;20236;-73
2022/03/21 03:30:32;;;;;;;15.10;12.57;;;;;;;8.07;34.35;99440.41;8349237;28;20236;-73
2022/03/21 03:34:35;;;;;;;15.47;11.70;;;;;;;8.05;34.82;99442.13;8352752;28;20239;-73
2022/03/21 03:38:38;;;;;;;15.03;11.70;;;;;;;8.06;34.71;99438.72;8352995;28;20537;-73
2022/03/21 03:42:41;;;;;;;15.67;12.27;;;;;;;7.96;34.71;99443.94;8353063;28;20240;-73
2022/03/21 03:46:46;;;;;;;14.70;12.43;;;;;;;7.95;34.85;99447.38;8352625;28;20239;-73
2022/03/21 03:50:50;;;;;;;16.13;12.00;;;;;;;7.91;35.09;99448.28;8353028;28;20591;-73
2022/03/21 03:54:53;;;;;;;15.77;12.47;;;;;;;7.94;34.64;99449.97;8352507;28;20236;-73
2022/03/21 03:58:56;;;;;;;15.77;11.63;;;;;;;7.58;34.35;99460.63;8352846;28;20560;-73
2022/03/21 04:07:26;;;;;;;14.90;12.47;;;;;;;7.59;34.87;99461.47;8331870;28;20248;-73
2022/03/21 04:11:29;;;;;;;15.53;12.10;;;;;;;7.75;35.39;99449.31;8352091;28;20244;-73
2022/03/21 04:15:32;;;;;;;13.53;12.13;;;;;;;7.77;35.02;99458.75;8351653;28;20240;-73
2022/03/21 04:19:37;;;;;;;16.17;11.67;;;;;;;7.76;35.53;99459.59;8351897;28;20240;-74
2022/03/21 04:23:40;;;;;;;15.93;11.90;;;;;;;7.64;35.36;99462.31;8351752;28;20569;-74
2022/03/21 04:27:43;;;;;;;14.43;11.70;;;;;;;7.63;35.20;99463.16;8351685;28;20239;-73
2022/03/21 04:31:46;;;;;;;14.10;12.10;;;;;;;7.63;35.66;99464.03;8351438;28;20246;-73
2022/03/21 04:35:50;;;;;;;15.57;12.37;;;;;;;7.52;35.40;99467.56;8351225;28;20244;-73
2022/03/21 04:39:53;;;;;;;15.57;11.90;;;;;;;7.52;34.95;99473.59;8351223;28;20251;-73
2022/03/21 04:43:57;;;;;;;14.80;12.27;;;;;;;7.46;34.71;99471.03;8350269;28;20240;-73
2022/03/21 04:48:00;;;;;;;14.10;11.67;;;;;;;7.36;34.62;99477.13;8351006;28;20251;-73
2022/03/21 04:52:06;;;;;;;17.17;11.87;;;;;;;6.54;35.29;99469.84;8350741;28;20239;-73
2022/03/21 04:56:09;;;;;;;16.07;11.87;;;;;;;6.50;35.56;99475.03;8350735;28;20246;-73
2022/03/21 05:00:13;;;;;;;15.10;12.10;;;;;;;6.41;35.73;99483.63;8350571;28;20236;-73
2022/03/21 05:04:16;;;;;;;17.90;11.90;;;;;;;6.36;35.84;99487.94;8350086;28;20236;-73
2022/03/21 05:08:21;;;;;;;13.30;11.33;;;;;;;5.92;36.20;99494.00;8349990;28;20247;-73
2022/03/21 05:12:25;;;;;;;15.60;12.00;;;;;;;5.67;36.81;99491.44;8350450;28;20240;-73
2022/03/21 05:16:28;;;;;;;19.37;11.43;;;;;;;5.80;36.70;99505.16;8350306;28;20244;-73
2022/03/21 05:20:31;;;;;;;14.20;11.40;;;;;;;5.75;36.99;99499.13;8349744;28;20534;-73
2022/03/21 05:37:41;;;;;;;15.43;11.63;;;;;;;7.08;34.75;99502.22;8323330;28;20239;-73
2022/03/21 05:41:46;;;;;;;16.70;12.30;;;;;;;7.39;33.89;99493.44;8316356;28;20240;-73
2022/03/21 05:45:49;;;;;;;14.03;11.87;;;;;;;7.52;34.38;99499.38;8316183;28;20248;-73
2022/03/21 05:49:52;;;;;;;13.97;12.00;;;;;;;7.57;33.36;99497.59;8316381;28;20311;-73
2022/03/21 05:53:55;;;;;;;16.33;12.50;;;;;;;7.74;33.75;99497.44;8315845;28;20243;-73
2022/03/21 05:57:59;;;;;;;17.20;11.93;;;;;;;8.11;33.76;99504.88;8316104;28;20414;-73
2022/03/21 06:02:03;;;;;;;16.83;12.20;;;;;;;8.22;32.49;99508.22;8321677;28;20239;-72
2022/03/21 06:06:06;;;;;;;15.70;11.73;;;;;;;8.49;32.31;99513.97;8348388;28;20303;-72
2022/03/21 06:10:09;;;;;;;14.57;11.93;;;;;;;8.45;32.02;99522.59;8348228;28;20235;-72
2022/03/21 06:14:14;;;;;;;15.47;11.80;;;;;;;8.81;31.38;99512.72;8348151;28;20240;-72
2022/03/21 06:18:17;;;;;;;20.10;14.97;;;;;;;8.96;30.55;99519.44;8344990;28;20246;-74
2022/03/21 06:22:20;;;;;;;20.40;14.17;;;;;;;9.28;30.58;99516.41;8344529;28;20236;-72
2022/03/21 06:26:23;;;;;;;16.20;12.87;;;;;;;9.25;30.20;99524.19;8346758;28;20247;-72
2022/03/21 06:30:28;;;;;;;17.13;12.57;;;;;;;9.33;30.23;99526.69;8345986;28;20247;-71
2022/03/21 06:34:31;;;;;;;14.30;12.30;;;;;;;9.04;30.15;99537.41;8342156;28;20240;-73
2022/03/21 06:38:35;;;;;;;14.10;10.87;;;;;;;8.78;30.31;99548.94;8347078;28;20247;-72
2022/03/21 06:42:38;;;;;;;15.90;10.57;;;;;;;9.67;29.60;99539.09;8347348;28;20240;-73
2022/03/21 06:46:43;;;;;;;16.20;11.37;;;;;;;9.45;29.61;99536.84;8347378;28;20252;-73
2022/03/21 06:50:46;;;;;;;16.30;11.70;;;;;;;8.75;31.30;99546.38;8347387;28;20553;-73
2022/03/21 06:54:50;;;;;;;15.57;11.33;;;;;;;8.78;30.80;99544.63;8347314;28;20240;-73
2022/03/21 06:58:53;;;;;;;16.27;12.13;;;;;;;8.22;31.49;99541.75;8347142;28;20231;-72
2022/03/21 07:02:57;;;;;;;14.90;10.87;;;;;;;7.96;31.50;99548.88;8346995;28;20228;-73
2022/03/21 07:07:01;;;;;;;13.20;10.43;;;;;;;8.47;30.80;99545.81;8346327;28;20235;-72
2022/03/21 07:11:04;;;;;;;12.43;10.50;;;;;;;8.85;30.39;99542.81;8346956;28;20239;-72
2022/03/21 07:15:08;;;;;;;11.37;10.07;;;;;;;9.12;29.98;99541.63;8346797;28;20243;-72
2022/03/21 07:19:13;;;;;;;15.03;10.30;;;;;;;9.32;29.96;99543.06;8346866;28;20246;-72
2022/03/21 07:23:16;;;;;;;12.00;10.47;;;;;;;8.99;30.12;99553.84;8346840;28;20228;-72
2022/03/21 07:27:20;;;;;;;12.63;10.33;;;;;;;9.21;29.88;99561.31;8346837;28;20232;-72
2022/03/21 07:31:23;;;;;;;13.43;10.73;;;;;;;9.66;29.70;99564.13;8346691;28;20236;-72
2022/03/21 07:35:27;;;;;;;13.73;10.27;;;;;;;9.90;29.48;99564.59;8346712;28;20244;-72
2022/03/21 07:39:34;;;;;;;12.50;10.47;;;;;;;9.40;29.29;99569.66;8346713;28;20243;-73
2022/03/21 07:43:38;;;;;;;12.03;10.37;;;;;;;9.77;29.62;99572.56;8346050;28;20421;-72
2022/03/21 07:47:41;;;;;;;13.27;10.50;;;;;;;9.30;29.22;99578.44;8346199;28;20236;-72
2022/03/21 07:51:46;;;;;;;18.60;10.20;;;;;;;8.36;30.89;99580.34;8346097;28;20422;-72
2022/03/21 07:55:49;;;;;;;11.77;9.80;;;;;;;8.82;30.54;99586.78;8346199;28;20244;-72
2022/03/21 07:59:53;;;;;;;14.43;10.33;;;;;;;8.87;30.51;99587.59;8346197;28;20412;-72
2022/03/21 08:03:57;;;;;;;12.67;10.97;;;;;;;9.52;29.45;99582.44;8345978;28;20228;-72
2022/03/21 08:08:02;;;;;;;13.17;10.57;;;;;;;9.18;29.74;99589.78;8346022;28;20240;-72
2022/03/21 08:12:06;;;;;;;15.00;10.93;;;;;;;10.20;28.84;99590.88;8345825;28;20236;-72
2022/03/21 08:16:09;;;;;;;13.67;10.60;;;;;;;10.97;27.35;99592.94;8346055;28;20247;-72
2022/03/21 08:20:13;;;;;;;11.97;10.67;;;;;;;10.96;27.04;99589.47;8351764;28;20243;-72
2022/03/21 08:24:17;;;;;;;13.30;10.67;;;;;;;11.54;26.28;99602.97;8351893;28;20265;-72
2022/03/21 08:28:20;;;;;;;12.00;10.60;;;;;;;11.71;26.12;99600.00;8351731;28;20244;-72
2022/03/21 08:32:23;;;;;;;14.37;9.97;;;;;;;10.96;27.70;99593.81;8351383;28;20255;-73
2022/03/21 08:36:27;;;;;;;13.07;10.47;;;;;;;11.75;25.93;99590.41;8351095;28;20255;-73
2022/03/21 08:40:31;;;;;;;14.80;10.57;;;;;;;10.96;26.82;99593.81;8351019;28;20243;-73
2022/03/21 08:44:34;;;;;;;13.00;11.27;;;;;;;11.24;26.81;99595.84;8350585;28;20232;-74
2022/03/21 08:53:18;;;;;;;14.37;10.50;;;;;;;12.45;25.49;99599.97;8350739;28;20235;-72
2022/03/21 08:57:25;;;;;;;12.37;11.00;;;;;;;12.12;24.92;99590.38;8350745;28;20432;-72
2022/03/21 09:01:28;;;;;;;12.40;10.17;;;;;;;11.38;25.64;99588.63;8350300;28;20242;-72
2022/03/21 09:05:32;;;;;;;12.47;10.60;;;;;;;12.29;24.51;99584.78;8349674;28;20521;-72
2022/03/21 09:09:35;;;;;;;15.50;9.97;;;;;;;13.91;23.95;99576.69;8350381;28;20236;-72
2022/03/21 09:13:39;;;;;;;12.67;10.27;;;;;;;14.26;22.13;99576.41;8350352;28;20240;-73
2022/03/21 09:17:42;;;;;;;12.93;10.07;;;;;;;13.41;23.34;99569.59;8350045;28;20247;-73
2022/03/21 09:21:45;;;;;;;13.23;10.13;;;;;;;14.36;22.10;99569.09;8349755;28;20232;-72
2022/03/21 09:25:48;;;;;;;14.87;10.33;;;;;;;14.11;22.66;99573.44;8349640;28;20235;-74
2022/03/21 09:29:52;;;;;;;13.77;9.50;;;;;;;14.45;22.22;99576.63;8349274;28;20244;-72
2022/03/21 09:33:56;;;;;;;16.13;10.10;;;;;;;14.42;22.09;99568.06;8349612;28;20263;-72
2022/03/21 09:38:00;;;;;;;12.10;10.33;;;;;;;15.82;21.03;99571.56;8349061;28;20236;-72
2022/03/21 09:42:04;;;;;;;15.97;10.03;;;;;;;15.00;21.89;99575.56;8349537;28;20243;-72
2022/03/21 09:46:09;;;;;;;11.37;9.90;;;;;;;15.52;21.30;99577.97;8349487;28;20434;-72
2022/03/21 09:50:14;;;;;;;12.60;10.23;;;;;;;15.94;20.91;99569.38;8348822;28;20235;-71
2022/03/21 09:54:17;;;;;;;17.63;13.83;;;;;;;16.46;36.20;99572.41;8346931;28;20243;-71
2022/03/21 09:58:20;;;;;;;11.43;9.70;;;;;;;16.47;21.53;99568.03;8349013;28;20238;-65
2022/03/21 10:02:25;;;;;;;14.80;9.63;;;;;;;16.33;22.61;99568.63;8348616;28;20238;-65
2022/03/21 10:06:30;;;;;;;14.53;9.90;;;;;;;16.04;22.52;99565.47;8320408;28;20253;-63
2022/03/21 10:10:33;;;;;;;10.43;8.80;;;;;;;16.67;23.19;99568.00;8315359;28;20236;-58
2022/03/21 10:14:37;;;;;;;10.57;9.47;;;;;;;16.08;20.92;99569.66;8315679;28;20241;-57
2022/03/21 10:18:58;;;;;;;14.77;10.73;;;;;;;16.30;19.99;99563.53;8315530;28;20539;-55
2022/03/21 10:23:16;;;;;;;12.70;9.43;;;;;;;16.54;20.24;99561.63;8315425;28;20236;-55
2022/03/21 10:27:30;;;;;;;11.67;9.97;;;;;;;17.20;20.10;99556.09;8315472;28;20424;-55
2022/03/21 10:31:35;;;;;;;11.53;9.90;;;;;;;17.79;19.49;99557.63;8314905;28;20236;-54
2022/03/21 10:35:47;;;;;;;12.30;10.23;;;;;;;16.99;18.90;99553.53;8315161;28;20617;-54
2022/03/21 10:39:53;;;;;;;13.50;9.40;;;;;;;17.06;19.58;99550.63;8314319;28;20241;-55
2022/03/21 10:43:57;;;;;;;13.23;9.63;;;;;;;17.65;19.93;99552.22;8315192;28;20574;-55
2022/03/21 10:48:00;;;;;;;13.03;9.50;;;;;;;17.97;19.20;99548.06;8314841;28;20236;-54
2022/03/21 10:52:06;;;;;;;13.03;9.70;;;;;;;17.96;19.03;99551.59;8314619;28;20237;-54
2022/03/21 10:56:11;;;;;;;10.60;9.50;;;;;;;18.52;18.52;99541.78;8314404;28;20438;-55
2022/03/21 11:00:16;;;;;;;11.60;9.13;;;;;;;18.23;18.59;99545.88;8314397;28;20243;-54
2022/03/21 11:04:18;;;;;;;10.73;9.53;;;;;;;18.49;19.83;99538.47;8338692;28;20242;-55
2022/03/21 11:08:23;;;;;;;12.20;9.73;;;;;;;18.40;18.46;99523.22;8346797;28;20236;-55
2022/03/21 11:12:26;;;;;;;14.87;9.87;;;;;;;18.35;19.28;99518.19;8347028;28;20236;-54
2022/03/21 11:16:36;;;;;;;12.97;10.33;;;;;;;18.93;18.28;99520.38;8346594;28;20246;-54
2022/03/21 11:20:39;;;;;;;15.27;9.50;;;;;;;18.59;18.88;99515.22;8346846;28;20248;-55
2022/03/21 11:24:44;;;;;;;11.13;9.67;;;;;;;18.84;18.73;99520.88;8346923;28;20235;-55
2022/03/21 11:29:11;;;;;;;13.83;10.07;;;;;;;19.03;18.58;99510.22;8347124;28;20232;-54
2022/03/21 11:33:23;;;;;;;14.20;10.07;;;;;;;19.11;17.95;99504.56;8346690;28;20232;-55
2022/03/21 11:37:27;;;;;;;11.93;9.57;;;;;;;17.54;19.65;99505.56;8346585;28;20237;-55
2022/03/21 11:41:32;;;;;;;13.20;9.60;;;;;;;17.90;18.69;99502.09;8346719;28;20244;-55
2022/03/21 11:45:36;;;;;;;12.03;9.43;;;;;;;18.45;19.20;99498.44;8346117;28;20246;-55
2022/03/21 11:49:45;;;;;;;11.23;9.17;;;;;;;18.38;18.24;99494.44;8346365;28;20546;-54
2022/03/21 11:53:50;;;;;;;11.30;9.57;;;;;;;18.67;19.06;99492.03;8352064;28;20236;-54
2022/03/21 11:57:54;;;;;;;11.57;10.37;;;;;;;18.41;18.59;99481.16;8352754;28;20232;-55
2022/03/21 12:01:57;;;;;;;11.37;9.20;;;;;;;18.70;18.33;99482.22;8325417;28;20242;-54
2022/03/21 12:06:23;;;;;;;11.67;9.20;;;;;;;18.51;18.04;99471.88;8352189;28;20246;-55
2022/03/21 12:10:37;;;;;;;12.17;9.57;;;;;;;17.71;18.59;99470.69;8352331;28;20254;-55
2022/03/21 12:14:44;;;;;;;11.70;8.90;;;;;;;18.80;18.20;99469.50;8351790;28;20239;-54
2022/03/21 12:19:02;;;;;;;12.83;9.30;;;;;;;19.28;18.82;99467.69;8351638;28;20248;-55
2022/03/21 12:23:21;;;;;;;12.20;8.73;;;;;;;17.96;17.72;99464.25;8348602;28;20279;-55
2022/03/21 12:27:31;;;;;;;10.57;8.77;;;;;;;17.73;19.10;99447.03;8334286;28;20239;-55
2022/03/21 12:31:35;;;;;;;11.50;8.80;;;;;;;19.00;17.87;99436.03;8337608;28;20319;-58
2022/03/21 12:36:05;;;;;;;11.20;8.33;;;;;;;19.13;17.82;99442.31;8348879;28;20247;-58
2022/03/21 12:40:13;;;;;;;10.27;8.53;;;;;;;19.50;17.38;99442.84;8334205;28;20627;-58
2022/03/21 12:44:20;;;;;;;11.23;8.83;;;;;;;19.78;17.18;99442.13;8334811;28;20228;-58
2022/03/21 12:48:29;;;;;;;10.90;8.57;;;;;;;19.01;17.16;99441.22;8333123;28;20505;-58
2022/03/21 12:52:34;;;;;;;11.60;8.67;;;;;;;18.59;17.48;99432.09;8334255;28;20232;-58
2022/03/21 12:56:37;;;;;;;10.43;8.87;;;;;;;19.56;17.36;99431.13;8333499;28;20295;-58
2022/03/21 13:00:41;;;;;;;11.20;9.03;;;;;;;19.20;16.98;99427.06;8331069;28;20236;-59
2022/03/21 13:13:43;;;;;;;11.20;8.73;;;;;;;19.54;16.88;99415.47;8332872;28;20236;-59
2022/03/21 13:17:51;;;;;;;9.20;8.30;;;;;;;18.98;16.45;99412.50;8345561;28;20251;-58
2022/03/21 13:21:56;;;;;;;12.03;8.60;;;;;;;19.73;16.89;99410.00;8343778;28;20225;-58
2022/03/21 13:26:09;;;;;;;9.40;8.40;;;;;;;19.22;15.89;99409.44;8349810;28;20236;-58
2022/03/21 13:30:13;;;;;;;10.97;8.37;;;;;;;18.71;16.83;99393.84;8331109;28;20236;-58
2022/03/21 13:34:16;;;;;;;11.37;8.57;;;;;;;18.90;16.92;99398.97;8316870;28;20240;-58
2022/03/21 13:38:24;;;;;;;9.73;8.70;;;;;;;18.48;16.99;99392.50;8316530;28;20569;-58
2022/03/21 13:42:30;;;;;;;10.57;8.07;;;;;;;19.18;16.96;99390.38;8340625;28;20542;-58
2022/03/21 13:46:33;;;;;;;9.50;8.40;;;;;;;18.98;16.45;99398.53;8347705;28;20236;-59
2022/03/21 13:50:39;;;;;;;11.70;7.80;;;;;;;19.45;17.05;99392.34;8349253;28;20280;-60
2022/03/21 13:54:54;;;;;;;11.43;8.37;;;;;;;19.86;17.35;99397.81;8349000;28;20279;-58
2022/03/21 13:59:09;;;;;;;9.77;8.47;;;;;;;19.80;16.41;99392.06;8348657;28;20307;-59
2022/03/21 14:03:12;;;;;;;9.57;7.90;;;;;;;20.06;16.64;99378.19;8348644;28;20292;-58
2022/03/21 14:07:16;;;;;;;14.77;8.83;;;;;;;19.93;16.43;99385.13;8348440;28;20310;-58
2022/03/21 14:11:22;;;;;;;9.40;8.10;;;;;;;19.61;16.28;99377.38;8348121;28;20239;-58
2022/03/21 14:15:27;;;;;;;9.03;8.03;;;;;;;20.10;16.94;99377.09;8348383;28;20459;-58
2022/03/21 14:19:30;;;;;;;10.43;8.43;;;;;;;19.73;15.49;99383.72;8348916;28;20294;-58
2022/03/21 14:23:39;;;;;;;10.50;8.00;;;;;;;19.25;15.93;99381.22;8348370;28;20228;-58
2022/03/21 14:27:43;;;;;;;10.80;7.00;;;;;;;19.40;16.13;99370.75;8323302;28;20443;-58
2022/03/21 14:31:48;;;;;;;9.27;7.87;;;;;;;19.71;16.10;99369.78;8314905;28;20236;-58
2022/03/21 14:35:52;;;;;;;11.03;8.73;;;;;;;18.86;16.45;99369.41;8315067;28;20237;-58
2022/03/21 14:39:55;;;;;;;10.67;8.07;;;;;;;19.46;16.35;99360.75;8314764;28;20426;-58
2022/03/21 14:43:59;;;;;;;9.17;7.80;;;;;;;19.21;16.43;99361.34;8314579;28;20241;-58
2022/03/21 14:48:03;;;;;;;8.33;7.53;;;;;;;18.84;16.62;99358.16;8314786;28;20258;-58
2022/03/21 14:52:08;;;;;;;8.67;7.87;;;;;;;19.13;16.33;99355.66;8314542;28;20236;-58
2022/03/21 14:56:12;;;;;;;11.23;8.00;;;;;;;18.56;16.77;99349.19;8314448;28;20263;-58
2022/03/21 15:00:18;;;;;;;9.50;8.00;;;;;;;17.96;17.16;99352.41;8314405;28;20233;-58
2022/03/21 15:04:21;;;;;;;8.27;7.47;;;;;;;18.26;16.81;99349.09;8339037;28;20244;-58
2022/03/21 15:08:24;;;;;;;13.67;8.30;;;;;;;18.68;17.72;99346.81;8346998;28;20337;-58
2022/03/21 15:12:28;;;;;;;12.07;8.60;;;;;;;18.29;17.61;99342.81;8338055;28;20233;-58
2022/03/21 15:16:32;;;;;;;11.20;8.60;;;;;;;17.98;17.78;99345.28;8319948;28;20248;-59
2022/03/21 15:20:36;;;;;;;9.07;8.00;;;;;;;18.65;17.74;99341.72;8313846;28;20295;-58
2022/03/21 15:24:40;;;;;;;9.13;8.20;;;;;;;17.26;17.98;99342.88;8315941;28;20256;-58
2022/03/21 15:28:43;;;;;;;10.03;8.40;;;;;;;17.46;18.30;99344.50;8352679;28;20244;-58
2022/03/21 15:32:48;;;;;;;10.70;8.37;;;;;;;18.21;17.57;99330.13;8353242;28;20240;-58
2022/03/21 15:45:32;;;;;;;9.83;8.17;;;;;;;17.95;18.93;99329.75;8337541;28;20240;-60
2022/03/21 15:49:36;;;;;;;10.07;8.53;;;;;;;17.59;18.84;99332.47;8320617;28;20300;-58
2022/03/21 15:53:39;;;;;;;11.03;7.93;;;;;;;17.78;19.21;99341.09;8319713;28;20241;-58
2022/03/21 15:57:42;;;;;;;11.87;7.80;;;;;;;17.76;19.24;99337.69;8320623;28;20240;-58
2022/03/21 16:01:45;;;;;;;9.77;8.50;;;;;;;16.43;19.54;99332.03;8342103;28;20233;-58
2022/03/21 16:05:51;;;;;;;10.20;8.20;;;;;;;16.90;19.11;99334.16;8320602;28;20245;-59
2022/03/21 16:09:54;;;;;;;9.67;8.00;;;;;;;16.75;19.39;99333.09;8319596;28;20236;-58
2022/03/21 16:13:57;;;;;;;13.47;8.80;;;;;;;16.69;19.51;99332.53;8319415;28;20240;-59
2022/03/21 16:18:00;;;;;;;12.93;11.23;;;;;;;16.98;20.02;99332.03;8319405;28;20252;-58
2022/03/21 16:22:05;;;;;;;21.63;12.83;;;;;;;16.68;19.33;99334.31;8318960;28;20300;-58
2022/03/21 16:26:08;;;;;;;20.57;16.10;;;;;;;16.65;20.02;99336.22;8319103;28;20233;-59
2022/03/21 16:30:13;;;;;;;12.60;9.57;;;;;;;16.11;20.50;99331.72;8334462;28;20232;-59
2022/03/21 16:34:16;;;;;;;15.40;11.13;;;;;;;15.97;20.63;99334.09;8330829;28;20543;-61
2022/03/21 16:38:21;;;;;;;14.67;11.23;;;;;;;16.06;20.72;99338.06;8317067;28;20241;-66
2022/03/21 16:42:24;;;;;;;19.10;13.90;;;;;;;15.76;21.15;99334.16;8318443;28;20241;-66
2022/03/21 16:46:27;;;;;;;22.97;14.93;;;;;;;15.69;21.35;99343.13;8318860;28;20569;-67
2022/03/21 16:50:30;;;;;;;22.80;14.07;;;;;;;15.53;21.66;99337.69;8351063;28;20557;-66
2022/03/21 16:54:35;;;;;;;17.43;13.23;;;;;;;15.39;21.79;99334.84;8342961;28;20223;-67
2022/03/21 16:58:39;;;;;;;16.90;12.67;;;;;;;15.19;22.03;99340.88;8338665;28;20251;-67
2022/03/21 17:02:43;;;;;;;14.80;10.43;;;;;;;15.25;22.09;99336.28;8350821;28;20232;-67
2022/03/21 17:06:47;;;;;;;17.70;14.23;;;;;;;15.52;22.50;99340.41;8350196;28;20243;-66
2022/03/21 17:10:52;;;;;;;15.13;9.33;;;;;;;15.22;22.45;99344.22;8350259;28;20235;-67
2022/03/21 17:14:55;;;;;;;14.93;13.33;;;;;;;15.47;22.40;99332.75;8350376;28;20236;-67
2022/03/21 17:23:18;;;;;;;60.13;46.90;;;;;;;15.28;22.86;99345.72;8349639;28;20294;-67
2022/03/21 17:27:23;;;;;;;30.23;26.15;;;;;;;15.40;22.34;99339.13;8345673;28;20757;-61
2022/03/21 17:31:25;;;;;;;64.40;46.73;;;;;;;15.19;22.94;99346.97;8330023;28;20243;-61
2022/03/21 17:35:30;;;;;;;49.63;38.50;;;;;;;15.09;22.90;99348.25;8316781;28;20569;-61
2022/03/21 17:39:33;;;;;;;30.47;25.40;;;;;;;15.07;23.15;99351.84;8316023;28;20381;-62
2022/03/21 17:43:38;;;;;;;26.53;21.03;;;;;;;15.00;23.70;99357.31;8316209;28;20236;-63
2022/03/21 17:47:41;;;;;;;17.83;11.97;;;;;;;14.78;23.52;99357.31;8326813;28;20443;-61
2022/03/21 17:51:49;;;;;;;17.97;13.90;;;;;;;14.87;23.58;99366.53;8348120;28;20236;-65
2022/03/21 17:55:52;;;;;;;13.23;10.40;;;;;;;14.99;24.31;99365.19;8326842;28;20237;-61
2022/03/21 17:59:56;;;;;;;13.27;10.13;;;;;;;14.88;25.40;99368.22;8315843;28;20244;-61
2022/03/21 18:03:59;;;;;;;12.43;9.73;;;;;;;14.79;25.87;99366.84;8347097;28;20534;-60
2022/03/21 18:08:03;;;;;;;14.67;10.30;;;;;;;14.61;25.76;99365.78;8348347;28;20243;-61
2022/03/21 18:12:06;;;;;;;13.50;9.83;;;;;;;14.63;26.84;99358.75;8348297;28;20239;-60
2022/03/21 18:16:11;;;;;;;13.93;10.43;;;;;;;14.52;26.31;99358.28;8348308;28;20511;-61
2022/03/21 18:20:16;;;;;;;17.47;12.03;;;;;;;14.53;26.55;99369.56;8345308;28;20589;-61
2022/03/21 18:24:20;;;;;;;14.70;11.77;;;;;;;14.44;26.45;99363.78;8336164;28;20225;-60
2022/03/21 18:28:23;;;;;;;13.13;11.00;;;;;;;14.36;26.29;99370.22;8316909;28;20547;-60
2022/03/21 18:32:28;;;;;;;12.93;11.37;;;;;;;14.30;27.10;99368.69;8347022;28;20240;-60
2022/03/21 18:36:31;;;;;;;13.67;10.97;;;;;;;14.21;27.58;99369.00;8347159;28;20333;-62
2022/03/21 18:40:35;;;;;;;16.83;11.60;;;;;;;14.08;27.58;99373.81;8346446;28;20236;-61
2022/03/21 18:44:43;;;;;;;14.10;11.10;;;;;;;14.00;27.69;99375.84;8347256;28;20236;-61
2022/03/21 18:48:48;;;;;;;13.57;12.10;;;;;;;13.89;28.00;99379.69;8327856;28;20247;-60
2022/03/21 18:52:54;;;;;;;16.33;11.83;;;;;;;13.85;27.85;99378.09;8314378;28;20244;-61
2022/03/21 18:56:56;;;;;;;21.63;17.07;;;;;;;13.77;28.86;99379.28;8314426;28;20434;-62
2022/03/21 19:00:59;;;;;;;21.77;18.77;;;;;;;13.65;28.68;99386.59;8313822;28;20241;-61
2022/03/21 19:05:05;;;;;;;21.00;17.30;;;;;;;13.48;28.53;99383.72;8314453;28;20431;-61
2022/03/21 19:09:11;;;;;;;16.97;13.63;;;;;;;13.39;29.22;99387.47;8314494;28;20236;-60
2022/03/21 19:13:15;;;;;;;15.77;12.43;;;;;;;13.30;29.17;99391.22;8314568;28;20233;-60
2022/03/21 19:17:18;;;;;;;16.57;12.23;;;;;;;13.26;29.24;99396.56;8314544;28;20240;-60
2022/03/21 19:21:23;;;;;;;18.53;5.80;;;;;;;15.14;54.89;99413.31;8339192;28;20247;-60
2022/03/21 19:25:26;;;;;;;19.40;9.93;;;;;;;16.05;36.68;99399.94;8346966;28;20327;-62
2022/03/21 19:29:32;;;;;;;19.70;13.37;;;;;;;14.90;28.57;99405.50;8346628;28;20243;-66
2022/03/21 19:33:35;;;;;;;18.77;12.83;;;;;;;14.01;29.08;99408.78;8346927;28;20243;-66
2022/03/21 19:37:40;;;;;;;15.87;12.00;;;;;;;13.55;29.27;99411.22;8345911;28;20565;-66
2022/03/21 19:41:45;;;;;;;13.63;11.47;;;;;;;13.39;29.71;99416.09;8346451;28;20244;-66